Time;durP1;ratioP1;P1;durP2;ratioP2;P2;SDS_P1;SDS_P2;PMS_P1;PMS_P2;Temp;Humidity;BMP_temperature;BMP_pressure;BME280_temperature;BME280_humidity;BME280_pressure;Samples;Min_cycle;Max_cycle;Signal;HPM_P1;HPM_P2
2023/12/01 05:07:16;;;;;;;0.30;0.30;;;2.30;99.90;;;;;;4990684;23;20294;-66
2023/12/01 05:09:42;;;;;;;0.80;0.80;;;2.30;99.90;;;;;;4956126;28;20176;-66
2023/12/01 05:12:07;;;;;;;0.40;0.40;;;2.30;99.90;;;;;;4973392;28;20419;-67
2023/12/01 05:14:33;;;;;;;0.67;0.67;;;2.30;99.90;;;;;;4973742;28;20380;-68
2023/12/01 05:16:59;;;;;;;0.30;0.30;;;2.30;99.90;;;;;;4973832;28;20196;-66
2023/12/01 05:19:25;;;;;;;0.40;0.40;;;2.30;99.90;;;;;;4956231;28;20212;-66
2023/12/01 05:21:50;;;;;;;0.30;0.30;;;2.30;99.90;;;;;;4973963;28;20564;-67
2023/12/01 05:24:16;;;;;;;0.37;0.37;;;2.30;99.90;;;;;;4973005;28;20210;-68
2023/12/01 05:26:42;;;;;;;0.30;0.30;;;2.30;99.90;;;;;;4977643;28;20203;-69
2023/12/01 05:29:13;;;;;;;0.33;0.33;;;2.30;99.90;;;;;;4977626;28;20668;-67
2023/12/01 05:31:39;;;;;;;0.73;0.73;;;2.30;99.90;;;;;;4960295;28;20168;-69
2023/12/01 05:34:05;;;;;;;0.30;0.30;;;2.30;99.90;;;;;;4977220;28;20188;-68
2023/12/01 05:36:31;;;;;;;0.40;0.40;;;2.40;99.90;;;;;;4976178;28;20555;-69
2023/12/01 05:38:57;;;;;;;0.40;0.40;;;2.40;99.90;;;;;;4977180;28;20264;-69
2023/12/01 05:41:22;;;;;;;0.30;0.30;;;2.40;99.90;;;;;;4977257;28;20203;-68
2023/12/01 05:43:48;;;;;;;0.47;0.47;;;2.30;99.90;;;;;;4977205;28;20199;-67
2023/12/01 05:46:14;;;;;;;0.30;0.30;;;2.40;99.90;;;;;;4976370;28;20203;-68
2023/12/01 05:48:40;;;;;;;0.30;0.30;;;2.40;99.90;;;;;;4977360;28;20251;-67
2023/12/01 05:51:06;;;;;;;0.57;0.57;;;2.40;99.90;;;;;;4977239;28;20168;-68
2023/12/01 05:53:34;;;;;;;0.30;0.30;;;2.40;99.90;;;;;;4977522;28;20575;-68
2023/12/01 05:56:03;;;;;;;0.40;0.40;;;2.30;99.90;;;;;;4976600;28;20188;-67
2023/12/01 05:58:28;;;;;;;0.30;0.30;;;2.30;99.90;;;;;;4976828;28;20183;-68
2023/12/01 06:00:54;;;;;;;0.50;0.50;;;2.20;99.90;;;;;;4976788;28;20243;-68
2023/12/01 06:03:20;;;;;;;0.40;0.40;;;2.20;99.90;;;;;;4976363;28;20207;-68
2023/12/01 06:05:46;;;;;;;0.73;0.73;;;2.20;99.90;;;;;;4976209;28;20200;-67
2023/12/01 06:08:12;;;;;;;0.35;0.35;;;2.20;99.90;;;;;;4976705;28;20168;-68
2023/12/01 06:10:38;;;;;;;0.40;0.40;;;2.20;99.90;;;;;;4976678;28;20168;-67
2023/12/01 06:13:04;;;;;;;0.40;0.40;;;2.20;99.90;;;;;;4976071;28;20184;-68
2023/12/01 06:15:29;;;;;;;0.30;0.30;;;2.20;99.90;;;;;;4975626;28;20195;-67
2023/12/01 06:18:00;;;;;;;0.30;0.30;;;2.10;99.90;;;;;;4976514;28;20223;-69
2023/12/01 06:20:26;;;;;;;0.30;0.30;;;2.10;99.90;;;;;;4976410;28;20541;-68
2023/12/01 06:22:58;;;;;;;0.30;0.30;;;2.00;99.90;;;;;;4976454;28;20160;-68
2023/12/01 06:25:27;;;;;;;0.30;0.30;;;2.10;99.90;;;;;;4976147;28;20199;-67
2023/12/01 06:28:01;;;;;;;0.40;0.40;;;2.10;99.90;;;;;;4976299;28;20180;-68
2023/12/01 06:30:33;;;;;;;0.40;0.40;;;2.10;99.90;;;;;;4958578;28;20172;-67
2023/12/01 06:33:00;;;;;;;1.25;1.25;;;2.10;99.90;;;;;;4959771;28;20262;-68
2023/12/01 06:35:26;;;;;;;0.30;0.30;;;2.00;99.90;;;;;;4974467;28;20267;-66
2023/12/01 06:37:51;;;;;;;0.30;0.30;;;2.10;99.90;;;;;;4974320;28;20640;-68
2023/12/01 06:40:20;;;;;;;0.30;0.30;;;2.10;99.90;;;;;;4975320;28;20172;-67
2023/12/01 06:42:47;;;;;;;0.40;0.40;;;2.10;99.90;;;;;;4975195;28;20532;-68
2023/12/01 06:45:18;;;;;;;0.30;0.30;;;2.10;99.90;;;;;;4975358;28;20207;-69
2023/12/01 06:47:47;;;;;;;0.57;0.57;;;2.10;99.90;;;;;;4975302;28;20190;-68
2023/12/01 06:50:15;;;;;;;0.60;0.60;;;2.10;99.90;;;;;;4975652;28;20168;-68
2023/12/01 06:52:42;;;;;;;0.60;0.60;;;2.10;99.90;;;;;;4975760;28;20196;-70
2023/12/01 06:55:08;;;;;;;0.35;0.35;;;2.10;99.90;;;;;;4975089;28;20204;-69
2023/12/01 06:57:43;;;;;;;0.33;0.33;;;2.10;99.90;;;;;;4975503;28;20690;-71
2023/12/01 07:00:10;;;;;;;0.40;0.40;;;2.10;99.90;;;;;;4975443;28;21017;-67
2023/12/01 07:02:48;;;;;;;3.60;0.90;;;2.10;99.90;;;;;;4958320;28;20662;-67
2023/12/01 07:05:19;;;;;;;0.32;0.32;;;2.20;99.90;;;;;;4974990;28;20579;-66
2023/12/01 07:07:45;;;;;;;0.40;0.40;;;2.20;99.90;;;;;;4975250;28;20548;-66
2023/12/01 07:10:11;;;;;;;0.30;0.30;;;2.10;99.90;;;;;;4973916;28;20227;-65
2023/12/01 07:12:36;;;;;;;0.40;0.40;;;2.10;99.90;;;;;;4974588;28;20184;-66
2023/12/01 07:15:02;;;;;;;0.40;0.40;;;2.10;99.90;;;;;;4957756;28;20234;-66
2023/12/01 07:17:29;;;;;;;0.40;0.40;;;2.10;99.90;;;;;;4975427;28;20180;-65
2023/12/01 07:19:55;;;;;;;0.30;0.30;;;2.10;99.90;;;;;;4975280;28;20419;-66
2023/12/01 07:22:22;;;;;;;0.30;0.30;;;2.10;99.90;;;;;;4975352;28;20188;-66
2023/12/01 07:24:48;;;;;;;0.40;0.40;;;2.10;99.90;;;;;;4974457;28;20237;-67
2023/12/01 07:27:14;;;;;;;0.40;0.40;;;2.10;99.90;;;;;;4974880;28;20259;-65
2023/12/01 07:29:40;;;;;;;0.80;0.80;;;2.20;99.90;;;;;;4975494;28;20258;-65
2023/12/01 07:32:07;;;;;;;0.30;0.30;;;2.30;99.90;;;;;;4974976;28;20227;-65
2023/12/01 07:34:33;;;;;;;0.32;0.32;;;2.30;99.90;;;;;;4974404;28;20256;-66
2023/12/01 07:36:58;;;;;;;0.30;0.30;;;2.30;99.90;;;;;;4974978;28;20637;-66
2023/12/01 07:39:24;;;;;;;0.30;0.30;;;2.30;99.90;;;;;;4974711;28;20426;-66
2023/12/01 07:41:50;;;;;;;0.43;0.43;;;2.40;99.90;;;;;;4974678;28;20211;-64
2023/12/01 07:44:16;;;;;;;0.40;0.40;;;2.40;99.90;;;;;;4974652;28;20266;-64
2023/12/01 07:46:41;;;;;;;0.30;0.30;;;2.40;99.90;;;;;;4974767;28;20196;-64
2023/12/01 07:49:11;;;;;;;0.40;0.40;;;2.40;99.90;;;;;;4974886;28;20416;-64
2023/12/01 07:51:37;;;;;;;2.35;1.95;;;2.40;99.90;;;;;;4975093;28;20191;-64
2023/12/01 07:54:04;;;;;;;0.30;0.30;;;2.40;99.90;;;;;;4974502;28;20216;-64
2023/12/01 07:56:29;;;;;;;0.35;0.35;;;2.40;99.90;;;;;;4974856;28;20196;-64
2023/12/01 07:58:55;;;;;;;1.27;1.17;;;2.40;99.90;;;;;;4974570;28;20241;-64
2023/12/01 08:01:22;;;;;;;0.30;0.30;;;2.40;99.90;;;;;;4974932;28;20176;-64
2023/12/01 08:03:48;;;;;;;0.40;0.40;;;2.40;99.90;;;;;;4974454;28;20204;-67
2023/12/01 08:06:14;;;;;;;0.30;0.30;;;2.40;99.90;;;;;;4956248;28;20693;-69
2023/12/01 08:08:41;;;;;;;0.40;0.40;;;2.40;99.90;;;;;;4974437;28;20226;-68
2023/12/01 08:11:07;;;;;;;0.40;0.40;;;2.40;99.90;;;;;;4975011;28;20163;-67
2023/12/01 08:13:32;;;;;;;0.30;0.30;;;2.40;99.90;;;;;;4974489;28;20247;-67
2023/12/01 08:15:59;;;;;;;0.30;0.30;;;2.50;99.90;;;;;;4974051;28;20198;-67
2023/12/01 08:18:24;;;;;;;0.30;0.30;;;2.50;99.90;;;;;;4974406;28;20172;-67
2023/12/01 08:20:50;;;;;;;0.30;0.30;;;2.50;99.90;;;;;;4973970;28;20251;-67
2023/12/01 08:23:16;;;;;;;0.40;0.40;;;2.50;99.90;;;;;;4974442;28;20254;-67
2023/12/01 08:25:43;;;;;;;0.30;0.30;;;2.60;99.90;;;;;;4973919;28;20271;-67
2023/12/01 08:28:09;;;;;;;0.40;0.40;;;2.60;99.90;;;;;;4974646;28;20503;-68
2023/12/01 08:30:34;;;;;;;0.40;0.40;;;2.60;99.90;;;;;;4974162;28;20254;-67
2023/12/01 08:33:00;;;;;;;0.40;0.40;;;2.50;99.90;;;;;;4974489;28;20408;-67
2023/12/01 08:35:26;;;;;;;0.30;0.30;;;2.60;99.90;;;;;;4956251;28;20258;-67
2023/12/01 08:37:52;;;;;;;0.30;0.30;;;2.60;99.90;;;;;;4974284;28;20255;-67
2023/12/01 08:40:18;;;;;;;0.30;0.30;;;2.50;99.90;;;;;;4974385;28;20200;-67
2023/12/01 08:42:45;;;;;;;0.30;0.30;;;2.50;99.90;;;;;;4973313;28;20219;-67
2023/12/01 08:45:10;;;;;;;0.40;0.40;;;2.50;99.90;;;;;;4973777;28;20208;-66
2023/12/01 08:47:37;;;;;;;0.30;0.30;;;2.50;99.90;;;;;;4974520;28;20203;-66
2023/12/01 08:50:03;;;;;;;0.40;0.40;;;2.50;99.90;;;;;;4973914;28;20191;-66
2023/12/01 08:52:28;;;;;;;0.30;0.30;;;2.50;99.90;;;;;;4974345;28;20176;-65
2023/12/01 08:54:54;;;;;;;0.30;0.30;;;2.60;99.90;;;;;;4973837;28;20448;-66
2023/12/01 08:57:19;;;;;;;0.60;0.60;;;2.50;99.90;;;;;;4974383;28;20638;-66
2023/12/01 08:59:45;;;;;;;0.30;0.30;;;2.60;99.90;;;;;;4974731;28;20200;-67
2023/12/01 09:02:11;;;;;;;0.40;0.40;;;2.60;99.90;;;;;;4977916;28;20175;-66
2023/12/01 09:04:36;;;;;;;0.40;0.40;;;2.60;99.90;;;;;;4959982;28;20200;-67
2023/12/01 09:07:02;;;;;;;0.30;0.30;;;2.70;99.90;;;;;;4977765;28;20228;-66
2023/12/01 09:09:27;;;;;;;0.30;0.30;;;2.70;99.90;;;;;;4977871;28;20255;-67
2023/12/01 09:11:53;;;;;;;0.30;0.30;;;2.70;99.90;;;;;;4977891;28;20532;-66
2023/12/01 09:14:19;;;;;;;0.30;0.30;;;2.70;99.90;;;;;;4976987;28;20176;-66
2023/12/01 09:16:45;;;;;;;0.30;0.30;;;2.70;99.90;;;;;;4977471;28;20200;-66
2023/12/01 09:19:11;;;;;;;0.40;0.40;;;2.70;99.90;;;;;;4977714;28;20165;-67
2023/12/01 09:21:37;;;;;;;0.38;0.38;;;2.70;99.90;;;;;;4977586;28;20235;-67
2023/12/01 09:24:02;;;;;;;0.40;0.40;;;2.70;99.90;;;;;;4977113;28;20256;-67
2023/12/01 09:26:31;;;;;;;0.30;0.30;;;2.80;99.90;;;;;;4977490;28;20186;-67
2023/12/01 09:28:57;;;;;;;0.30;0.30;;;2.80;99.90;;;;;;4977109;28;20176;-67
2023/12/01 09:31:23;;;;;;;0.30;0.30;;;2.90;99.90;;;;;;4977581;28;20171;-68
2023/12/01 09:33:49;;;;;;;0.40;0.40;;;2.90;99.90;;;;;;4977160;28;20172;-67
2023/12/01 09:36:17;;;;;;;0.30;0.30;;;2.80;99.90;;;;;;4976901;28;20207;-67
2023/12/01 09:38:49;;;;;;;0.30;0.30;;;2.80;99.90;;;;;;4977351;28;20412;-67
2023/12/01 09:41:18;;;;;;;0.55;0.55;;;2.80;99.90;;;;;;4977351;28;20172;-67
2023/12/01 09:43:44;;;;;;;0.35;0.35;;;2.80;99.90;;;;;;4976772;28;20209;-68
2023/12/01 09:46:11;;;;;;;0.40;0.40;;;2.90;99.90;;;;;;4976548;28;20196;-67
2023/12/01 09:48:40;;;;;;;0.40;0.40;;;2.90;99.90;;;;;;4976915;28;20700;-68
2023/12/01 09:51:07;;;;;;;0.30;0.30;;;2.80;99.90;;;;;;4976628;28;20181;-68
2023/12/01 09:53:33;;;;;;;0.30;0.30;;;2.80;99.90;;;;;;4976947;28;20533;-68
2023/12/01 09:56:01;;;;;;;0.30;0.30;;;2.80;99.90;;;;;;4976550;28;20204;-67
2023/12/01 09:58:28;;;;;;;0.40;0.40;;;2.80;99.90;;;;;;4976612;28;20180;-67
2023/12/01 10:00:54;;;;;;;0.30;0.30;;;2.80;99.90;;;;;;4959744;28;20720;-67
2023/12/01 10:03:21;;;;;;;0.45;0.45;;;2.80;99.90;;;;;;4976812;28;20248;-67
2023/12/01 10:05:47;;;;;;;0.37;0.37;;;2.80;99.90;;;;;;4976360;28;20252;-67
2023/12/01 10:08:15;;;;;;;0.40;0.40;;;2.80;99.90;;;;;;4976901;28;20173;-67
2023/12/01 10:10:40;;;;;;;0.30;0.30;;;2.80;99.90;;;;;;4976426;28;20184;-68
2023/12/01 10:13:07;;;;;;;0.47;0.47;;;2.80;99.90;;;;;;4976287;28;20170;-67
2023/12/01 10:15:38;;;;;;;0.30;0.30;;;2.80;99.90;;;;;;4976065;28;20238;-66
2023/12/01 10:18:23;;;;;;;0.30;0.30;;;2.80;99.90;;;;;;4976271;28;20652;-67
2023/12/01 10:20:59;;;;;;;0.40;0.40;;;2.80;99.90;;;;;;4977066;28;20586;-67
2023/12/01 10:23:25;;;;;;;0.50;0.50;;;2.80;99.90;;;;;;4976456;28;20164;-66
2023/12/01 10:25:52;;;;;;;0.30;0.30;;;2.80;99.90;;;;;;4976001;28;20664;-66
2023/12/01 10:28:18;;;;;;;0.30;0.30;;;2.80;99.90;;;;;;4976203;28;20183;-66
2023/12/01 10:30:58;;;;;;;0.50;0.50;;;2.80;99.90;;;;;;4976541;28;20206;-67
2023/12/01 10:33:26;;;;;;;0.40;0.40;;;2.70;99.90;;;;;;4976537;28;20195;-66
2023/12/01 10:36:21;;;;;;;0.85;0.85;;;2.70;99.90;;;;;;4975878;28;20677;-68
2023/12/01 10:38:48;;;;;;;0.40;0.40;;;2.70;99.90;;;;;;4959825;28;20184;-66
2023/12/01 10:41:16;;;;;;;0.30;0.30;;;2.60;99.90;;;;;;4975612;28;20184;-66
2023/12/01 10:43:44;;;;;;;0.35;0.35;;;2.60;99.90;;;;;;4976224;28;20284;-66
2023/12/01 10:46:12;;;;;;;2.67;0.95;;;2.60;99.90;;;;;;4975704;28;20223;-67
2023/12/01 10:48:38;;;;;;;1.15;1.15;;;2.50;99.90;;;;;;4976117;28;20176;-67
2023/12/01 10:51:05;;;;;;;0.40;0.40;;;2.50;99.90;;;;;;4976052;28;20179;-67
2023/12/01 10:53:31;;;;;;;0.38;0.38;;;2.60;99.90;;;;;;4976101;28;20532;-67
2023/12/01 10:56:04;;;;;;;0.30;0.30;;;2.60;99.90;;;;;;4973330;28;20193;-67
2023/12/01 10:58:34;;;;;;;0.30;0.30;;;2.60;99.90;;;;;;4973897;28;20263;-66
2023/12/01 11:01:00;;;;;;;0.40;0.40;;;2.60;99.90;;;;;;4973968;28;20652;-66
2023/12/01 11:03:29;;;;;;;0.30;0.30;;;2.60;99.90;;;;;;4973709;28;20235;-66
2023/12/01 11:06:10;;;;;;;0.30;0.30;;;2.70;99.90;;;;;;4973238;28;20236;-67
2023/12/01 11:08:54;;;;;;;0.40;0.40;;;2.70;99.90;;;;;;4973348;28;20181;-67
2023/12/01 11:11:58;;;;;;;0.40;0.40;;;2.70;99.90;;;;;;4974783;28;20172;-68
2023/12/01 11:14:25;;;;;;;0.40;0.40;;;2.70;99.90;;;;;;4964741;28;20282;-67
2023/12/01 11:16:52;;;;;;;0.30;0.30;;;2.80;99.90;;;;;;4975806;28;20199;-66
2023/12/01 11:19:21;;;;;;;0.40;0.40;;;2.80;99.90;;;;;;4975529;28;20173;-66
2023/12/01 11:21:55;;;;;;;0.30;0.30;;;2.80;99.90;;;;;;4975652;28;20588;-66
2023/12/01 11:24:31;;;;;;;0.70;0.70;;;2.70;99.90;;;;;;4974253;28;20251;-65
2023/12/01 11:27:05;;;;;;;0.40;0.40;;;2.70;99.90;;;;;;4975238;28;20192;-64
2023/12/01 11:29:36;;;;;;;0.40;0.40;;;2.70;99.90;;;;;;4975336;28;20653;-65
2023/12/01 11:32:03;;;;;;;0.30;0.30;;;2.60;99.90;;;;;;4974815;28;20168;-62
2023/12/01 11:34:29;;;;;;;0.40;0.40;;;2.60;99.90;;;;;;4974906;28;20656;-66
2023/12/01 11:36:56;;;;;;;0.30;0.30;;;2.60;99.90;;;;;;4975535;28;20211;-66
2023/12/01 11:39:29;;;;;;;0.40;0.40;;;2.70;99.90;;;;;;4975106;28;20180;-66
2023/12/01 11:41:58;;;;;;;0.60;0.60;;;2.60;99.90;;;;;;4975153;28;20184;-65
2023/12/01 11:44:25;;;;;;;0.30;0.30;;;2.60;99.90;;;;;;4974386;28;20207;-67
2023/12/01 11:46:57;;;;;;;0.40;0.40;;;2.60;99.90;;;;;;4975004;28;20192;-67
2023/12/01 11:49:24;;;;;;;0.30;0.30;;;2.70;99.90;;;;;;4975263;28;20184;-66
2023/12/01 11:51:50;;;;;;;0.30;0.30;;;2.60;99.90;;;;;;4974901;28;20204;-66
2023/12/01 11:54:16;;;;;;;0.40;0.40;;;2.70;99.90;;;;;;4974715;28;20211;-64
2023/12/01 11:56:50;;;;;;;0.40;0.40;;;2.60;99.90;;;;;;4974895;28;20435;-67
2023/12/01 11:59:17;;;;;;;0.45;0.45;;;2.60;99.90;;;;;;4974804;28;20179;-65
2023/12/01 12:01:42;;;;;;;0.30;0.30;;;2.70;99.90;;;;;;4957372;28;20645;-64
2023/12/01 12:04:11;;;;;;;0.30;0.30;;;2.70;99.90;;;;;;4974219;28;20211;-66
2023/12/01 12:06:36;;;;;;;0.40;0.40;;;2.80;99.90;;;;;;4974544;28;20452;-66
2023/12/01 12:09:06;;;;;;;0.30;0.30;;;2.80;99.90;;;;;;4974539;28;20170;-65
2023/12/01 12:11:36;;;;;;;0.30;0.30;;;2.80;99.90;;;;;;4973897;28;20200;-67
2023/12/01 12:14:04;;;;;;;0.30;0.30;;;2.80;99.90;;;;;;4974146;28;20211;-65
2023/12/01 12:16:30;;;;;;;0.40;0.40;;;2.80;99.90;;;;;;4973978;28;20197;-68
2023/12/01 12:19:00;;;;;;;1.70;1.60;;;2.80;99.90;;;;;;4974103;28;20179;-66
2023/12/01 12:21:27;;;;;;;0.30;0.30;;;2.80;99.90;;;;;;4974089;28;20679;-66
2023/12/01 12:23:54;;;;;;;0.30;0.30;;;2.70;99.90;;;;;;4974002;28;20293;-67
2023/12/01 12:26:22;;;;;;;0.68;0.68;;;2.70;99.90;;;;;;4973407;28;20227;-70
2023/12/01 12:28:52;;;;;;;0.40;0.40;;;2.80;99.90;;;;;;4973855;28;20164;-71
2023/12/01 12:31:18;;;;;;;0.30;0.30;;;2.80;99.90;;;;;;4974025;28;20568;-70
2023/12/01 12:33:44;;;;;;;0.40;0.40;;;2.90;99.90;;;;;;4973748;28;20301;-69
2023/12/01 12:36:13;;;;;;;0.30;0.30;;;2.90;99.90;;;;;;4973114;28;20188;-68
2023/12/01 12:38:38;;;;;;;0.40;0.40;;;2.90;99.90;;;;;;4973307;28;20180;-68
2023/12/01 12:41:24;;;;;;;0.43;0.43;;;2.90;99.90;;;;;;4973499;28;20186;-69
2023/12/01 12:44:17;;;;;;;0.38;0.38;;;3.00;99.90;;;;;;4974090;28;20472;-67
2023/12/01 12:46:55;;;;;;;0.38;0.38;;;2.90;99.90;;;;;;4970409;28;20568;-66
2023/12/01 12:49:22;;;;;;;0.30;0.30;;;2.90;99.90;;;;;;4972725;28;20172;-67
2023/12/01 12:51:47;;;;;;;0.30;0.30;;;2.90;99.90;;;;;;4974147;28;20181;-65
2023/12/01 12:54:13;;;;;;;0.30;0.30;;;3.00;99.90;;;;;;4972781;28;20615;-68
2023/12/01 12:56:39;;;;;;;0.38;0.38;;;3.00;99.90;;;;;;4956111;28;20195;-65
2023/12/01 12:59:04;;;;;;;0.40;0.40;;;3.00;99.90;;;;;;4973588;28;20177;-67
2023/12/01 13:01:30;;;;;;;0.30;0.30;;;3.00;99.90;;;;;;4973566;28;20256;-68
2023/12/01 13:03:56;;;;;;;0.60;0.60;;;3.00;99.90;;;;;;4973179;28;20615;-64
2023/12/01 13:06:22;;;;;;;0.30;0.30;;;3.00;99.90;;;;;;4973739;28;20219;-68
2023/12/01 13:08:48;;;;;;;0.30;0.30;;;2.90;99.90;;;;;;4973884;28;20530;-68
2023/12/01 13:11:15;;;;;;;0.30;0.30;;;2.90;99.90;;;;;;4957101;28;20172;-69
2023/12/01 13:13:42;;;;;;;0.30;0.30;;;2.90;99.90;;;;;;4974918;28;20176;-66
2023/12/01 13:16:09;;;;;;;0.30;0.30;;;3.00;99.90;;;;;;4977781;28;20680;-62
2023/12/01 13:18:36;;;;;;;0.30;0.30;;;2.90;99.90;;;;;;4974288;28;20172;-65
2023/12/01 13:21:02;;;;;;;0.40;0.40;;;2.90;99.90;;;;;;4972906;28;20243;-69
2023/12/01 13:23:28;;;;;;;0.30;0.30;;;2.80;99.90;;;;;;4973872;28;20168;-66
2023/12/01 13:25:54;;;;;;;0.30;0.30;;;2.80;99.90;;;;;;4973270;28;20621;-72
2023/12/01 13:28:19;;;;;;;3.03;1.43;;;2.70;99.90;;;;;;4974088;28;20167;-65
2023/12/01 13:30:45;;;;;;;0.40;0.40;;;2.70;99.90;;;;;;4956345;28;20223;-67
2023/12/01 13:33:11;;;;;;;0.40;0.40;;;2.60;99.90;;;;;;4973768;28;20458;-64
2023/12/01 13:35:37;;;;;;;0.30;0.30;;;2.60;99.90;;;;;;4973227;28;20530;-66
2023/12/01 13:38:03;;;;;;;0.40;0.40;;;2.60;99.90;;;;;;4974076;28;20252;-68
2023/12/01 13:40:29;;;;;;;0.50;0.50;;;2.60;99.90;;;;;;4973835;28;20596;-67
2023/12/01 13:42:55;;;;;;;0.30;0.30;;;2.50;99.90;;;;;;4956495;28;20183;-66
2023/12/01 13:45:20;;;;;;;0.30;0.30;;;2.50;99.90;;;;;;4973497;28;20231;-64
2023/12/01 13:47:46;;;;;;;0.80;0.80;;;2.40;99.90;;;;;;4977352;28;20211;-66
2023/12/01 13:50:12;;;;;;;0.40;0.40;;;2.40;99.90;;;;;;4976866;28;20187;-64
2023/12/01 13:52:38;;;;;;;0.40;0.40;;;2.40;99.90;;;;;;4977369;28;20404;-67
2023/12/01 13:55:05;;;;;;;0.70;0.70;;;2.30;99.90;;;;;;4976730;28;20196;-68
2023/12/01 13:57:31;;;;;;;0.38;0.38;;;2.30;99.90;;;;;;4977001;28;20191;-63
2023/12/01 13:59:57;;;;;;;0.40;0.40;;;2.30;99.90;;;;;;4958937;28;20175;-66
2023/12/01 14:02:22;;;;;;;0.40;0.40;;;2.30;99.90;;;;;;4977039;28;20542;-68
2023/12/01 14:04:48;;;;;;;0.30;0.30;;;2.30;99.90;;;;;;4976378;28;20211;-66
2023/12/01 14:07:14;;;;;;;0.40;0.40;;;2.30;99.90;;;;;;4976653;28;20571;-66
2023/12/01 14:09:39;;;;;;;0.30;0.30;;;2.30;99.90;;;;;;4976707;28;20180;-69
2023/12/01 14:12:06;;;;;;;0.30;0.30;;;2.30;99.90;;;;;;4976908;28;20163;-65
2023/12/01 14:14:32;;;;;;;0.30;0.30;;;2.20;99.90;;;;;;4959513;28;20595;-68
2023/12/01 14:16:58;;;;;;;0.40;0.40;;;2.20;99.90;;;;;;4959371;28;20196;-66
2023/12/01 14:19:24;;;;;;;0.30;0.30;;;2.20;99.90;;;;;;4976604;28;20474;-67
2023/12/01 14:21:50;;;;;;;0.30;0.30;;;2.20;99.90;;;;;;4959254;28;20183;-65
2023/12/01 14:24:16;;;;;;;0.30;0.30;;;2.20;99.90;;;;;;4975805;28;20208;-68
2023/12/01 14:26:46;;;;;;;0.30;0.30;;;2.30;99.90;;;;;;4958952;28;20203;-64
2023/12/01 14:29:13;;;;;;;0.38;0.38;;;2.30;99.90;;;;;;4976649;28;20204;-66
2023/12/01 14:31:39;;;;;;;0.30;0.30;;;2.30;99.90;;;;;;4976417;28;20195;-67
2023/12/01 14:34:06;;;;;;;1.08;1.08;;;2.30;99.90;;;;;;4975955;28;20548;-65
2023/12/01 14:36:32;;;;;;;0.40;0.40;;;2.20;99.90;;;;;;4976169;28;20242;-62
2023/12/01 14:38:58;;;;;;;0.40;0.40;;;2.30;99.90;;;;;;4975726;28;20180;-61
2023/12/01 14:41:24;;;;;;;1.05;1.00;;;2.20;99.90;;;;;;4976053;28;20180;-63
2023/12/01 14:43:50;;;;;;;0.40;0.40;;;2.20;99.90;;;;;;4975317;28;20213;-61
2023/12/01 14:46:15;;;;;;;0.50;0.50;;;2.20;99.90;;;;;;4955567;28;20251;-62
2023/12/01 14:48:41;;;;;;;0.40;0.40;;;2.20;99.90;;;;;;4976403;28;20180;-62
2023/12/01 14:51:08;;;;;;;0.30;0.30;;;2.20;99.90;;;;;;4975965;28;20179;-62
2023/12/01 14:53:34;;;;;;;0.45;0.45;;;2.20;99.90;;;;;;4972369;28;20184;-65
2023/12/01 14:56:00;;;;;;;0.40;0.40;;;2.20;99.90;;;;;;4974738;28;20247;-66
2023/12/01 14:58:25;;;;;;;0.30;0.30;;;2.20;99.90;;;;;;4974411;28;20421;-63
2023/12/01 15:00:52;;;;;;;0.40;0.40;;;2.20;99.90;;;;;;4974768;28;20186;-66
2023/12/01 15:03:18;;;;;;;0.40;0.40;;;2.20;99.90;;;;;;4975378;28;20536;-63
2023/12/01 15:05:44;;;;;;;0.30;0.30;;;2.10;99.90;;;;;;4975146;28;20231;-66
2023/12/01 15:08:10;;;;;;;0.43;0.43;;;2.10;99.90;;;;;;4975841;28;20203;-66
2023/12/01 15:10:36;;;;;;;0.40;0.40;;;2.10;99.90;;;;;;4975642;28;20267;-63
2023/12/01 15:13:01;;;;;;;2.23;2.13;;;2.10;99.90;;;;;;4975021;28;20700;-67
2023/12/01 15:15:27;;;;;;;0.37;0.37;;;2.10;99.90;;;;;;4957853;28;20200;-66
2023/12/01 15:17:52;;;;;;;0.30;0.30;;;2.10;99.90;;;;;;4975886;28;20168;-66
2023/12/01 15:20:18;;;;;;;0.30;0.30;;;2.10;99.90;;;;;;4975578;28;20637;-64
2023/12/01 15:22:44;;;;;;;0.30;0.30;;;2.10;99.90;;;;;;4975527;28;20566;-64
2023/12/01 15:25:11;;;;;;;1.23;1.23;;;2.10;99.90;;;;;;4974891;28;20250;-64
2023/12/01 15:27:36;;;;;;;0.30;0.30;;;2.10;99.90;;;;;;4957537;28;20579;-66
2023/12/01 15:30:03;;;;;;;0.30;0.30;;;2.10;99.90;;;;;;4975467;28;20168;-65
2023/12/01 15:32:29;;;;;;;0.30;0.30;;;2.10;99.90;;;;;;4975533;28;20195;-65
2023/12/01 15:34:54;;;;;;;0.40;0.40;;;2.10;99.90;;;;;;4975141;28;20183;-65
2023/12/01 15:37:21;;;;;;;0.30;0.30;;;2.10;99.90;;;;;;4974744;28;20180;-66
2023/12/01 15:39:47;;;;;;;0.50;0.50;;;2.00;99.90;;;;;;4974842;28;20534;-70
2023/12/01 15:42:13;;;;;;;0.33;0.33;;;2.00;99.90;;;;;;4974674;28;20191;-66
2023/12/01 15:44:39;;;;;;;0.40;0.40;;;2.00;99.90;;;;;;4975011;28;20546;-68
2023/12/01 15:47:05;;;;;;;0.40;0.40;;;2.00;99.90;;;;;;4974926;28;20216;-68
2023/12/01 15:49:31;;;;;;;0.40;0.40;;;1.90;99.90;;;;;;4974900;28;20411;-68
2023/12/01 15:51:58;;;;;;;1.43;1.17;;;1.90;99.90;;;;;;4975554;28;20211;-69
2023/12/01 15:54:23;;;;;;;0.40;0.40;;;1.90;99.90;;;;;;4974585;28;20183;-67
2023/12/01 15:56:49;;;;;;;0.40;0.40;;;1.90;99.90;;;;;;4974028;28;20259;-66
2023/12/01 15:59:14;;;;;;;1.57;1.47;;;1.90;99.90;;;;;;4972404;28;20179;-66
2023/12/01 16:01:40;;;;;;;0.40;0.40;;;1.90;99.90;;;;;;4972855;28;20219;-68
2023/12/01 16:04:07;;;;;;;0.30;0.30;;;2.00;99.90;;;;;;4972306;28;20210;-66
2023/12/01 16:06:32;;;;;;;0.68;0.68;;;1.90;99.90;;;;;;4972853;28;20307;-66
2023/12/01 16:08:58;;;;;;;0.40;0.40;;;1.90;99.90;;;;;;4956066;28;20274;-66
2023/12/01 16:11:23;;;;;;;0.30;0.30;;;2.00;99.90;;;;;;4973679;28;20176;-67
2023/12/01 16:13:49;;;;;;;0.50;0.50;;;2.00;99.90;;;;;;4974310;28;20255;-68
2023/12/01 16:16:15;;;;;;;0.40;0.40;;;1.90;99.90;;;;;;4973898;28;20203;-67
2023/12/01 16:18:40;;;;;;;0.38;0.38;;;1.90;99.90;;;;;;4975028;28;20179;-65
2023/12/01 16:21:06;;;;;;;0.40;0.40;;;1.90;99.90;;;;;;4974535;28;20176;-69
2023/12/01 16:23:32;;;;;;;0.80;0.80;;;1.80;99.90;;;;;;4974765;28;20183;-66
2023/12/01 16:25:58;;;;;;;0.40;0.40;;;1.80;99.90;;;;;;4973722;28;20783;-66
2023/12/01 16:28:24;;;;;;;0.32;0.32;;;1.80;99.90;;;;;;4957357;28;20164;-68
2023/12/01 16:30:50;;;;;;;0.30;0.30;;;1.80;99.90;;;;;;4974484;28;20699;-65
2023/12/01 16:33:16;;;;;;;0.40;0.40;;;1.80;99.90;;;;;;4957209;28;20179;-65
2023/12/01 16:35:41;;;;;;;0.40;0.40;;;1.80;99.90;;;;;;4973728;28;20739;-66
2023/12/01 16:38:07;;;;;;;0.40;0.40;;;1.80;99.90;;;;;;4974341;28;20540;-68
2023/12/01 16:40:33;;;;;;;0.40;0.40;;;1.80;99.90;;;;;;4974544;28;20180;-67
2023/12/01 16:42:58;;;;;;;0.40;0.40;;;1.80;99.90;;;;;;4974227;28;20184;-68
2023/12/01 16:45:24;;;;;;;0.30;0.30;;;1.80;99.90;;;;;;4974078;28;20339;-65
2023/12/01 16:47:50;;;;;;;0.40;0.40;;;1.80;99.90;;;;;;4974562;28;20187;-67
2023/12/01 16:50:16;;;;;;;0.30;0.30;;;1.80;99.90;;;;;;4956610;28;20420;-66
2023/12/01 16:52:42;;;;;;;0.40;0.40;;;1.80;99.90;;;;;;4974286;28;20175;-67
2023/12/01 16:55:11;;;;;;;0.50;0.50;;;1.80;99.90;;;;;;4973929;28;20242;-65
2023/12/01 16:57:37;;;;;;;0.30;0.30;;;1.80;99.90;;;;;;4974309;28;20176;-68
2023/12/01 17:00:03;;;;;;;0.33;0.33;;;1.80;99.90;;;;;;4974174;28;20168;-65
2023/12/01 17:02:29;;;;;;;0.40;0.40;;;1.80;99.90;;;;;;4956881;28;20501;-66
2023/12/01 17:04:55;;;;;;;0.40;0.40;;;1.80;99.90;;;;;;4973306;28;20231;-66
2023/12/01 17:07:20;;;;;;;0.40;0.40;;;1.80;99.90;;;;;;4974136;28;20192;-67
2023/12/01 17:09:46;;;;;;;0.40;0.40;;;1.80;99.90;;;;;;4974203;28;20172;-67
2023/12/01 17:12:12;;;;;;;0.30;0.30;;;1.80;99.90;;;;;;4974247;28;20231;-65
2023/12/01 17:14:37;;;;;;;0.40;0.40;;;1.80;99.90;;;;;;4973669;28;20267;-68
2023/12/01 17:17:03;;;;;;;0.43;0.43;;;1.80;99.90;;;;;;4974011;28;20463;-65
2023/12/01 17:19:30;;;;;;;0.33;0.33;;;1.80;99.90;;;;;;4973438;28;20184;-66
2023/12/01 17:21:56;;;;;;;0.43;0.43;;;1.80;99.90;;;;;;4976868;28;20176;-64
2023/12/01 17:24:23;;;;;;;0.40;0.40;;;1.80;99.90;;;;;;4976780;28;20316;-68
2023/12/01 17:26:48;;;;;;;0.40;0.40;;;1.80;99.90;;;;;;4977290;28;20192;-66
2023/12/01 17:29:14;;;;;;;0.33;0.33;;;1.80;99.90;;;;;;4977579;28;20175;-68
2023/12/01 17:31:39;;;;;;;0.50;0.50;;;1.90;99.90;;;;;;4977516;28;20199;-66
2023/12/01 17:34:06;;;;;;;0.30;0.30;;;1.90;99.90;;;;;;4977234;28;20172;-66
2023/12/01 17:36:31;;;;;;;0.40;0.40;;;1.90;99.90;;;;;;4977428;28;20282;-65
2023/12/01 17:38:57;;;;;;;0.40;0.40;;;1.90;99.90;;;;;;4977057;28;20712;-65
2023/12/01 17:41:22;;;;;;;0.40;0.40;;;1.90;99.90;;;;;;4977086;28;20180;-67
2023/12/01 17:43:48;;;;;;;0.40;0.40;;;1.90;99.90;;;;;;4977180;28;20235;-66
2023/12/01 17:46:13;;;;;;;0.33;0.33;;;1.90;99.90;;;;;;4976825;28;20242;-67
2023/12/01 17:48:39;;;;;;;0.40;0.40;;;1.90;99.90;;;;;;4977217;28;20172;-67
2023/12/01 17:51:05;;;;;;;0.40;0.40;;;1.90;99.90;;;;;;4977100;28;20311;-66
2023/12/01 17:53:30;;;;;;;0.40;0.40;;;1.90;99.90;;;;;;4976910;28;20529;-65
2023/12/01 17:55:56;;;;;;;0.30;0.30;;;1.90;99.90;;;;;;4976500;28;20442;-67
2023/12/01 17:58:22;;;;;;;0.30;0.30;;;1.90;99.90;;;;;;4976912;28;20169;-67
2023/12/01 18:00:47;;;;;;;0.47;0.47;;;1.90;99.90;;;;;;4977240;28;20179;-67
2023/12/01 18:03:13;;;;;;;0.40;0.40;;;1.90;99.90;;;;;;4976981;28;20208;-66